createdAt,value
2023-05-02T00:00:59.054Z,10.67
2023-05-02T00:03:01.210Z,11.07
2023-05-02T00:05:03.094Z,10.27
2023-05-02T00:07:05.502Z,7.90
2023-05-02T00:09:07.132Z,10.80
2023-05-02T00:11:08.937Z,7.63
2023-05-02T00:13:11.271Z,7.80
2023-05-02T00:15:12.965Z,10.57
2023-05-02T00:17:19.244Z,9.00
2023-05-02T00:19:21.079Z,11.33
2023-05-02T00:21:22.823Z,7.07
2023-05-02T00:23:24.555Z,10.37
2023-05-02T00:25:26.262Z,8.47
2023-05-02T00:27:29.598Z,8.30
2023-05-02T00:29:31.265Z,11.97
2023-05-02T00:31:33.055Z,9.30
2023-05-02T00:33:34.768Z,13.23
2023-05-02T00:35:42.543Z,12.30
2023-05-02T00:37:44.376Z,10.87
2023-05-02T00:39:46.039Z,10.77
2023-05-02T00:41:47.822Z,11.57
2023-05-02T00:43:49.515Z,12.43
2023-05-02T00:45:52.130Z,7.93
2023-05-02T00:47:53.959Z,10.73
2023-05-02T00:49:55.698Z,10.57
2023-05-02T00:51:58.837Z,9.87
2023-05-02T00:54:02.218Z,13.13
2023-05-02T00:56:03.982Z,9.07
2023-05-02T00:58:17.153Z,9.97
2023-05-02T01:00:19.219Z,9.17
2023-05-02T01:02:22.095Z,10.87
2023-05-02T01:04:33.592Z,11.00
2023-05-02T01:07:02.617Z,10.80
2023-05-02T01:09:23.310Z,10.00
2023-05-02T01:11:36.905Z,10.23
2023-05-02T01:13:40.295Z,12.83
2023-05-02T01:15:42.885Z,11.43
2023-05-02T01:17:45.930Z,10.33
2023-05-02T01:19:54.262Z,10.57
2023-05-02T01:21:57.396Z,16.90
2023-05-02T01:24:04.973Z,12.13
2023-05-02T01:26:37.358Z,10.80
2023-05-02T01:29:02.238Z,10.20
2023-05-02T01:31:06.101Z,9.60
2023-05-02T01:33:11.016Z,10.67
2023-05-02T01:35:16.076Z,10.30
2023-05-02T01:37:18.885Z,11.03
2023-05-02T01:39:25.976Z,10.50
2023-05-02T01:41:31.039Z,9.90
2023-05-02T01:43:34.973Z,10.23
2023-05-02T01:45:39.187Z,10.93
2023-05-02T01:47:43.614Z,10.63
2023-05-02T01:49:47.353Z,10.33
2023-05-02T01:51:50.406Z,14.57
2023-05-02T01:53:53.194Z,10.87
2023-05-02T01:55:55.972Z,10.87
2023-05-02T01:57:57.827Z,10.90
2023-05-02T02:00:00.848Z,10.90
2023-05-02T02:02:05.097Z,14.00
2023-05-02T02:04:09.787Z,12.00
2023-05-02T02:06:12.775Z,12.47
2023-05-02T02:08:14.640Z,9.93
2023-05-02T02:10:16.560Z,12.60
2023-05-02T02:12:26.495Z,9.23
2023-05-02T02:14:34.475Z,12.80
2023-05-02T02:16:39.291Z,10.40
2023-05-02T02:18:44.642Z,11.77
2023-05-02T02:20:50.134Z,11.33
2023-05-02T02:22:53.479Z,14.20
2023-05-02T02:24:57.259Z,11.00
2023-05-02T02:26:59.143Z,11.20
2023-05-02T02:29:01.590Z,10.97
2023-05-02T02:31:03.502Z,10.70
2023-05-02T02:33:05.204Z,9.70
2023-05-02T02:35:07.615Z,12.53
2023-05-02T02:37:15.539Z,11.00
2023-05-02T02:39:39.669Z,11.17
2023-05-02T02:42:05.528Z,14.10
2023-05-02T02:44:32.331Z,12.53
2023-05-02T02:46:51.247Z,12.80
2023-05-02T02:49:18.834Z,12.07
2023-05-02T02:51:29.927Z,14.30
2023-05-02T02:53:46.972Z,10.77
2023-05-02T02:56:01.068Z,13.83
2023-05-02T02:58:14.268Z,17.73
2023-05-02T03:00:20.898Z,12.10
2023-05-02T03:02:27.366Z,12.67
2023-05-02T03:04:32.083Z,12.40
2023-05-02T03:06:34.108Z,11.07
2023-05-02T03:08:43.101Z,12.57
2023-05-02T03:10:44.792Z,12.50
2023-05-02T03:12:46.566Z,11.97
2023-05-02T03:14:48.403Z,11.13
2023-05-02T03:16:50.876Z,15.90
2023-05-02T03:18:52.604Z,12.67
2023-05-02T03:20:54.451Z,14.07
2023-05-02T03:22:56.094Z,13.73
2023-05-02T03:24:57.919Z,11.60
2023-05-02T03:26:59.982Z,13.53
2023-05-02T03:29:02.226Z,13.43
2023-05-02T03:31:03.935Z,10.83
2023-05-02T03:33:07.902Z,15.80
2023-05-02T03:35:09.802Z,14.20
2023-05-02T03:37:11.813Z,15.40
2023-05-02T03:39:13.531Z,14.97
2023-05-02T03:41:15.263Z,11.50
2023-05-02T03:43:16.952Z,17.27
2023-05-02T03:45:18.871Z,14.77
2023-05-02T03:47:20.720Z,13.60
2023-05-02T03:49:22.949Z,12.93
2023-05-02T03:51:24.639Z,15.07
2023-05-02T03:53:26.355Z,14.97
2023-05-02T03:55:28.360Z,17.20
2023-05-02T03:57:30.917Z,15.50
2023-05-02T03:59:34.459Z,17.27
2023-05-02T04:01:36.150Z,14.40
2023-05-02T04:03:37.970Z,14.80
2023-05-02T04:05:39.641Z,16.53
2023-05-02T04:07:41.651Z,16.30
2023-05-02T04:09:43.632Z,20.17
2023-05-02T04:11:45.922Z,14.70
2023-05-02T04:13:47.564Z,12.27
2023-05-02T04:15:49.209Z,14.83
2023-05-02T04:17:50.919Z,16.03
2023-05-02T04:19:52.610Z,15.87
2023-05-02T04:21:54.333Z,14.07
2023-05-02T04:23:55.949Z,15.57
2023-05-02T04:25:57.649Z,18.60
2023-05-02T04:27:59.346Z,14.07
2023-05-02T04:30:01.267Z,15.97
2023-05-02T04:32:03.316Z,14.03
2023-05-02T04:34:06.140Z,13.40
2023-05-02T04:36:10.566Z,15.20
2023-05-02T04:38:12.420Z,14.30
2023-05-02T04:40:14.352Z,12.80
2023-05-02T04:42:16.076Z,12.83
2023-05-02T04:44:17.775Z,14.77
2023-05-02T04:46:19.568Z,16.37
2023-05-02T04:48:21.948Z,12.47
2023-05-02T04:50:23.726Z,13.17
2023-05-02T04:52:25.435Z,13.70
2023-05-02T04:54:28.003Z,14.50
2023-05-02T04:56:29.621Z,15.70
2023-05-02T04:58:31.364Z,17.30
2023-05-02T05:00:33.285Z,15.40
2023-05-02T05:02:35.067Z,15.27
2023-05-02T05:04:37.058Z,11.23
2023-05-02T05:06:38.875Z,15.93
2023-05-02T05:08:40.726Z,13.23
2023-05-02T05:10:42.438Z,14.13
2023-05-02T05:12:44.268Z,16.03
2023-05-02T05:14:46.075Z,12.60
2023-05-02T05:16:47.878Z,15.90
2023-05-02T05:18:49.967Z,10.50
2023-05-02T05:20:51.595Z,12.50
2023-05-02T05:22:53.269Z,13.10
2023-05-02T05:24:55.446Z,13.43
2023-05-02T05:26:57.151Z,13.97
2023-05-02T05:28:59.325Z,15.27
2023-05-02T05:31:08.789Z,12.73
2023-05-02T05:33:10.455Z,11.63
2023-05-02T05:35:12.310Z,13.97
2023-05-02T05:37:13.973Z,14.13
2023-05-02T05:39:15.672Z,14.20
2023-05-02T05:41:17.343Z,11.40
2023-05-02T05:43:18.977Z,10.00
2023-05-02T05:45:20.743Z,12.37
2023-05-02T05:47:22.713Z,11.90
2023-05-02T05:49:24.501Z,11.43
2023-05-02T05:51:27.736Z,12.00
2023-05-02T05:53:29.432Z,9.20
2023-05-02T05:55:31.152Z,10.13
2023-05-02T05:57:33.001Z,10.63
2023-05-02T05:59:36.548Z,12.37
2023-05-02T06:01:38.280Z,10.67
2023-05-02T06:03:40.058Z,10.40
2023-05-02T06:05:41.847Z,9.40
2023-05-02T06:07:43.627Z,8.80
2023-05-02T06:09:45.358Z,10.27
2023-05-02T06:11:47.058Z,8.33
2023-05-02T06:13:48.777Z,8.63
2023-05-02T06:15:50.435Z,14.50
2023-05-02T06:17:52.387Z,8.27
2023-05-02T06:19:54.180Z,10.10
2023-05-02T06:21:55.937Z,12.20
2023-05-02T06:23:57.770Z,7.50
2023-05-02T06:26:01.136Z,8.23
2023-05-02T06:28:02.839Z,8.70
2023-05-02T06:30:05.180Z,8.07
2023-05-02T06:32:06.992Z,10.63
2023-05-02T06:34:08.745Z,10.30
2023-05-02T06:36:10.953Z,9.07
2023-05-02T06:38:12.636Z,8.90
2023-05-02T06:40:14.479Z,10.60
2023-05-02T06:42:16.109Z,10.93
2023-05-02T06:44:17.755Z,10.70
2023-05-02T06:46:20.715Z,9.87
2023-05-02T06:48:22.973Z,8.90
2023-05-02T06:50:24.629Z,9.20
2023-05-02T06:52:26.327Z,9.27
2023-05-02T06:54:27.964Z,8.53
2023-05-02T06:56:29.908Z,10.07
2023-05-02T06:58:31.633Z,10.37
2023-05-02T07:00:33.440Z,10.63
2023-05-02T07:02:35.271Z,9.97
2023-05-02T07:04:37.136Z,9.00
2023-05-02T07:06:38.937Z,8.07
2023-05-02T07:08:40.776Z,8.93
2023-05-02T07:10:42.518Z,9.43
2023-05-02T07:12:44.210Z,8.90
2023-05-02T07:14:46.848Z,8.80
2023-05-02T07:16:48.845Z,12.77
2023-05-02T07:18:50.630Z,12.10
2023-05-02T07:20:52.348Z,9.90
2023-05-02T07:22:54.344Z,11.03
2023-05-02T07:25:01.079Z,12.90
2023-05-02T07:27:03.332Z,9.70
2023-05-02T07:29:06.788Z,9.20
2023-05-02T07:31:08.551Z,14.63
2023-05-02T07:33:10.378Z,10.20
2023-05-02T07:35:12.040Z,14.63
2023-05-02T07:37:13.742Z,9.60
2023-05-02T07:39:15.422Z,9.23
2023-05-02T07:41:17.255Z,11.60
2023-05-02T07:43:18.969Z,11.10
2023-05-02T07:45:20.902Z,12.10
2023-05-02T07:47:22.807Z,9.77
2023-05-02T07:49:24.644Z,10.97
2023-05-02T07:51:26.869Z,8.93
2023-05-02T07:53:28.521Z,8.47
2023-05-02T07:55:36.864Z,11.60
2023-05-02T07:57:38.628Z,10.60
2023-05-02T07:59:40.313Z,9.30
2023-05-02T08:01:42.076Z,11.40
2023-05-02T08:03:44.625Z,11.37
2023-05-02T08:05:46.601Z,11.50
2023-05-02T08:07:48.264Z,10.63
2023-05-02T08:09:50.064Z,11.03
2023-05-02T08:11:52.033Z,10.83
2023-05-02T08:13:54.399Z,10.40
2023-05-02T08:15:59.164Z,12.30
2023-05-02T08:18:02.753Z,14.53
2023-05-02T08:20:05.075Z,12.10
2023-05-02T08:22:07.189Z,11.60
2023-05-02T08:24:08.944Z,11.87
2023-05-02T08:26:10.902Z,11.63
2023-05-02T08:28:13.324Z,14.97
2023-05-02T08:30:15.017Z,12.40
2023-05-02T08:32:16.925Z,13.10
2023-05-02T08:34:18.811Z,12.97
2023-05-02T08:36:20.486Z,11.33
2023-05-02T08:38:22.243Z,15.23
2023-05-02T08:40:34.043Z,12.63
2023-05-02T08:42:44.819Z,15.70
2023-05-02T08:44:48.793Z,11.33
2023-05-02T08:46:52.372Z,14.20
2023-05-02T08:48:54.483Z,15.23
2023-05-02T08:50:56.539Z,12.50
2023-05-02T08:52:59.084Z,11.97
2023-05-02T08:55:03.702Z,11.80
2023-05-02T08:57:07.048Z,13.33
2023-05-02T08:59:08.767Z,12.90
2023-05-02T09:01:15.483Z,12.07
2023-05-02T09:03:33.122Z,12.80
2023-05-02T09:05:42.152Z,13.40
2023-05-02T09:07:48.059Z,13.97
2023-05-02T09:09:49.849Z,10.73
2023-05-02T09:11:52.673Z,18.50
2023-05-02T09:13:54.497Z,11.53
2023-05-02T09:16:05.573Z,12.30
2023-05-02T09:18:07.358Z,12.97
2023-05-02T09:20:11.592Z,14.87
2023-05-02T09:22:23.300Z,14.73
2023-05-02T09:24:25.765Z,10.70
2023-05-02T09:26:32.609Z,25.93
2023-05-02T09:28:45.490Z,13.30
2023-05-02T09:30:47.961Z,11.10
2023-05-02T09:32:56.016Z,14.27
2023-05-02T09:35:07.905Z,11.73
2023-05-02T09:37:11.510Z,14.13
2023-05-02T09:39:15.726Z,12.73
2023-05-02T09:41:21.994Z,13.97
2023-05-02T09:43:23.974Z,13.67
2023-05-02T09:45:26.704Z,12.97
2023-05-02T09:47:28.452Z,12.03
2023-05-02T09:49:49.227Z,12.13
2023-05-02T09:51:50.928Z,11.27
2023-05-02T09:53:53.026Z,13.40
2023-05-02T09:56:01.227Z,11.17
2023-05-02T09:58:03.989Z,11.93
2023-05-02T10:00:06.743Z,13.27
2023-05-02T10:02:11.036Z,11.30
2023-05-02T10:04:18.832Z,12.93
2023-05-02T10:06:21.682Z,11.87
2023-05-02T10:08:27.298Z,12.97
2023-05-02T10:10:33.030Z,12.80
2023-05-02T10:12:34.760Z,12.23
2023-05-02T10:14:44.019Z,13.60
2023-05-02T10:17:19.517Z,12.00
2023-05-02T10:19:27.211Z,10.03
2023-05-02T10:21:30.095Z,13.57
2023-05-02T10:23:32.903Z,11.40
2023-05-02T10:25:34.931Z,14.43
2023-05-02T10:27:37.826Z,15.10
2023-05-02T10:29:40.978Z,14.40
2023-05-02T10:31:45.025Z,14.90
2023-05-02T10:33:50.731Z,10.57
2023-05-02T10:35:52.740Z,12.00
2023-05-02T10:37:55.114Z,12.60
2023-05-02T10:39:56.976Z,11.53
2023-05-02T10:42:00.719Z,11.60
2023-05-02T10:44:07.428Z,11.80
2023-05-02T10:46:37.081Z,15.03
2023-05-02T10:48:39.090Z,12.03
2023-05-02T10:51:14.252Z,12.37
2023-05-02T10:53:23.736Z,13.27
2023-05-02T10:55:25.568Z,12.87
2023-05-02T10:57:27.521Z,12.70
2023-05-02T10:59:35.081Z,13.77
2023-05-02T11:01:39.390Z,13.27
2023-05-02T11:03:57.425Z,12.30
2023-05-02T11:06:07.050Z,13.43
2023-05-02T11:08:23.020Z,12.97
2023-05-02T11:10:26.489Z,14.30
2023-05-02T11:12:47.479Z,13.30
2023-05-02T11:14:49.727Z,17.47
2023-05-02T11:17:09.578Z,11.63
2023-05-02T11:19:11.256Z,13.30
2023-05-02T11:21:29.431Z,15.60
2023-05-02T11:23:31.243Z,13.63
2023-05-02T11:25:35.668Z,15.80
2023-05-02T11:27:41.556Z,14.70
2023-05-02T11:29:53.609Z,14.37
2023-05-02T11:31:55.894Z,12.67
2023-05-02T11:33:58.944Z,12.73
2023-05-02T11:36:01.381Z,13.03
2023-05-02T11:38:10.779Z,11.80
2023-05-02T11:40:14.019Z,13.37
2023-05-02T11:42:30.025Z,14.23
2023-05-02T11:44:31.776Z,15.20
2023-05-02T11:46:36.433Z,14.27
2023-05-02T11:48:38.794Z,14.33
2023-05-02T11:50:50.182Z,16.33
2023-05-02T11:52:52.451Z,15.67
2023-05-02T11:54:56.488Z,13.23
2023-05-02T11:57:02.186Z,14.63
2023-05-02T11:59:04.588Z,11.40
2023-05-02T12:01:16.461Z,13.77
2023-05-02T12:03:27.778Z,12.80
2023-05-02T12:05:30.413Z,15.00
2023-05-02T12:07:44.242Z,14.10
2023-05-02T12:09:53.605Z,12.13
2023-05-02T12:11:55.937Z,25.60
2023-05-02T12:13:57.928Z,14.57
2023-05-02T12:15:59.824Z,14.90
2023-05-02T12:18:02.405Z,15.33
2023-05-02T12:20:06.946Z,13.18
2023-05-02T12:22:09.916Z,14.07
2023-05-02T12:24:11.657Z,12.98
2023-05-02T12:26:22.441Z,13.88
2023-05-02T12:28:24.451Z,11.32
2023-05-02T12:30:27.329Z,17.70
2023-05-02T12:32:34.406Z,15.40
2023-05-02T12:34:37.440Z,14.20
2023-05-02T12:36:45.395Z,13.80
2023-05-02T12:38:57.158Z,12.82
2023-05-02T12:40:59.001Z,37.67
2023-05-02T12:43:04.179Z,17.40
2023-05-02T12:45:17.167Z,19.30
2023-05-02T12:47:20.165Z,21.50
2023-05-02T12:49:21.939Z,18.47
2023-05-02T12:51:24.441Z,19.43
2023-05-02T12:53:40.829Z,18.60
2023-05-02T12:55:43.098Z,18.30
2023-05-02T12:57:45.191Z,20.47
2023-05-02T12:59:46.820Z,23.93
2023-05-02T13:01:48.452Z,24.13
2023-05-02T13:03:51.435Z,23.63
2023-05-02T13:05:56.243Z,24.47
2023-05-02T13:07:59.149Z,22.40
2023-05-02T13:10:01.287Z,22.97
2023-05-02T13:12:04.353Z,18.83
2023-05-02T13:14:06.107Z,20.10
2023-05-02T13:16:08.359Z,19.90
2023-05-02T13:18:10.209Z,23.93
2023-05-02T13:20:13.079Z,20.87
2023-05-02T13:22:15.002Z,21.80
2023-05-02T13:24:17.571Z,18.17
2023-05-02T13:26:19.364Z,18.13
2023-05-02T13:28:21.021Z,19.17
2023-05-02T13:30:22.676Z,14.33
2023-05-02T13:32:24.387Z,15.80
2023-05-02T13:34:26.147Z,16.13
2023-05-02T13:36:27.895Z,15.97
2023-05-02T13:38:29.610Z,14.27
2023-05-02T13:40:31.301Z,18.07
2023-05-02T13:42:33.041Z,16.10
2023-05-02T13:44:34.705Z,15.43
2023-05-02T13:46:37.791Z,15.80
2023-05-02T13:48:39.994Z,18.80
2023-05-02T13:50:41.713Z,18.33
2023-05-02T13:52:43.519Z,20.37
2023-05-02T13:54:45.217Z,14.87
2023-05-02T13:56:46.906Z,18.47
2023-05-02T13:58:48.604Z,19.30
2023-05-02T14:00:50.398Z,19.80
2023-05-02T14:02:53.770Z,13.97
2023-05-02T14:04:55.613Z,16.90
2023-05-02T14:06:57.359Z,22.10
2023-05-02T14:08:59.185Z,16.10
2023-05-02T14:11:01.141Z,15.77
2023-05-02T14:13:02.874Z,17.00
2023-05-02T14:15:05.287Z,15.17
2023-05-02T14:17:07.070Z,15.30
2023-05-02T14:19:08.821Z,16.20
2023-05-02T14:21:10.543Z,17.13
2023-05-02T14:23:12.262Z,13.20
2023-05-02T14:25:15.638Z,13.80
2023-05-02T14:27:20.434Z,13.90
2023-05-02T14:29:22.383Z,11.63
2023-05-02T14:31:24.228Z,11.07
2023-05-02T14:33:26.133Z,9.23
2023-05-02T14:35:27.800Z,8.50
2023-05-02T14:37:29.529Z,8.90
2023-05-02T14:39:31.198Z,10.13
2023-05-02T14:41:32.817Z,11.10
2023-05-02T14:43:34.440Z,12.80
2023-05-02T14:45:36.145Z,8.03
2023-05-02T14:47:37.957Z,7.27
2023-05-02T14:49:39.908Z,6.87
2023-05-02T14:51:42.917Z,11.27
2023-05-02T14:53:45.213Z,9.37
2023-05-02T14:55:47.044Z,9.83
2023-05-02T14:57:48.885Z,11.37
2023-05-02T14:59:50.651Z,13.87
2023-05-02T15:01:53.073Z,11.73
2023-05-02T15:06:01.572Z,10.13
2023-05-02T15:08:03.377Z,8.47
2023-05-02T15:10:05.653Z,10.20
2023-05-02T15:12:07.508Z,11.10
2023-05-02T15:14:09.132Z,14.37
2023-05-02T15:16:11.203Z,11.93
2023-05-02T15:18:12.943Z,10.57
2023-05-02T15:20:14.931Z,13.50
2023-05-02T15:22:18.304Z,9.60
2023-05-02T15:24:20.391Z,11.83
2023-05-02T15:26:24.346Z,9.67
2023-05-02T15:28:26.037Z,14.20
2023-05-02T15:30:27.718Z,9.90
2023-05-02T15:32:29.841Z,8.13
2023-05-02T15:34:31.827Z,8.43
2023-05-02T15:36:37.227Z,8.07
2023-05-02T15:38:42.993Z,12.27
2023-05-02T15:40:44.910Z,8.17
2023-05-02T15:42:47.067Z,8.10
2023-05-02T15:44:48.794Z,7.60
2023-05-02T15:46:50.583Z,9.50
2023-05-02T15:48:52.398Z,9.10
2023-05-02T15:50:54.325Z,7.57
2023-05-02T15:52:56.031Z,9.80
2023-05-02T15:54:58.684Z,8.37
2023-05-02T15:57:02.510Z,8.17
2023-05-02T15:59:04.297Z,8.20
2023-05-02T16:01:06.583Z,8.70
2023-05-02T16:03:08.949Z,8.47
2023-05-02T16:05:10.909Z,9.30
2023-05-02T16:07:12.589Z,7.73
2023-05-02T16:09:14.396Z,9.03
2023-05-02T16:11:16.112Z,12.33
2023-05-02T16:13:17.862Z,8.80
2023-05-02T16:15:20.407Z,6.40
2023-05-02T16:17:22.189Z,8.03
2023-05-02T16:19:24.091Z,8.03
2023-05-02T16:21:25.940Z,7.53
2023-05-02T16:23:27.605Z,8.30
2023-05-02T16:25:29.561Z,7.97
2023-05-02T16:27:31.299Z,11.80
2023-05-02T16:29:32.977Z,8.50
2023-05-02T16:31:35.194Z,9.23
2023-05-02T16:33:38.520Z,8.50
2023-05-02T16:35:40.195Z,9.30
2023-05-02T16:37:42.169Z,10.40
2023-05-02T16:39:46.465Z,10.57
2023-05-02T16:41:49.289Z,10.60
2023-05-02T16:43:51.149Z,8.30
2023-05-02T16:46:03.664Z,9.43
2023-05-02T16:48:05.741Z,8.97
2023-05-02T16:50:08.220Z,10.70
2023-05-02T16:52:09.896Z,10.70
2023-05-02T16:54:11.540Z,11.13
2023-05-02T16:56:13.343Z,9.17
2023-05-02T16:58:15.042Z,9.00
2023-05-02T17:00:17.428Z,11.10
2023-05-02T17:02:20.906Z,8.10
2023-05-02T17:04:22.973Z,7.67
2023-05-02T17:06:24.764Z,8.03
2023-05-02T17:08:26.751Z,7.57
2023-05-02T17:10:28.607Z,10.57
2023-05-02T17:12:30.433Z,7.93
2023-05-02T17:14:32.497Z,7.33
2023-05-02T17:16:34.320Z,8.20
2023-05-02T17:18:36.152Z,8.50
2023-05-02T17:20:38.191Z,6.50
2023-05-02T17:22:41.563Z,7.87
2023-05-02T17:24:45.403Z,9.90
2023-05-02T17:26:47.309Z,6.20
2023-05-02T17:28:50.314Z,6.60
2023-05-02T17:30:55.763Z,6.77
2023-05-02T17:32:58.695Z,6.60
2023-05-02T17:35:00.744Z,7.50
2023-05-02T17:37:02.428Z,7.53
2023-05-02T17:39:04.216Z,6.37
2023-05-02T17:41:06.297Z,7.40
2023-05-02T17:43:07.957Z,5.93
2023-05-02T17:45:10.370Z,7.40
2023-05-02T17:47:12.985Z,5.40
2023-05-02T17:49:14.656Z,6.93
2023-05-02T17:51:16.691Z,6.77
2023-05-02T17:53:18.388Z,6.30
2023-05-02T17:55:20.076Z,8.80
2023-05-02T17:57:21.966Z,8.90
2023-05-02T17:59:23.647Z,7.10
2023-05-02T18:01:25.435Z,6.47
2023-05-02T18:03:27.209Z,7.27
2023-05-02T18:05:29.100Z,7.97
2023-05-02T18:07:31.463Z,6.67
2023-05-02T18:09:33.089Z,7.17
2023-05-02T18:11:35.099Z,15.10
2023-05-02T18:13:39.614Z,6.27
2023-05-02T18:15:41.424Z,6.60
2023-05-02T18:17:43.221Z,7.73
2023-05-02T18:19:44.951Z,4.67
2023-05-02T18:21:46.613Z,7.37
2023-05-02T18:23:48.812Z,6.47
2023-05-02T18:25:50.517Z,6.73
2023-05-02T18:27:52.247Z,6.40
2023-05-02T18:29:54.447Z,7.13
2023-05-02T18:31:56.210Z,5.33
2023-05-02T18:33:58.170Z,8.33
2023-05-02T18:36:00.327Z,6.97
2023-05-02T18:38:02.382Z,5.50
2023-05-02T18:40:04.838Z,5.77
2023-05-02T18:42:08.179Z,5.37
2023-05-02T18:44:11.473Z,5.07
2023-05-02T18:46:13.257Z,7.60
2023-05-02T18:48:15.141Z,8.00
2023-05-02T18:50:17.150Z,5.73
2023-05-02T18:52:18.964Z,7.90
2023-05-02T18:54:22.820Z,5.87
2023-05-02T18:56:25.406Z,5.33
2023-05-02T18:58:27.099Z,7.00
2023-05-02T19:00:31.247Z,6.60
2023-05-02T19:02:33.589Z,8.40
2023-05-02T19:04:35.595Z,5.30
2023-05-02T19:06:37.332Z,6.73
2023-05-02T19:08:40.352Z,6.33
2023-05-02T19:10:42.023Z,6.80
2023-05-02T19:12:43.964Z,7.30
2023-05-02T19:14:47.764Z,8.17
2023-05-02T19:16:49.880Z,6.43
2023-05-02T19:18:53.430Z,6.40
2023-05-02T19:20:55.066Z,6.30
2023-05-02T19:23:17.569Z,8.40
2023-05-02T19:25:19.713Z,6.77
2023-05-02T19:27:21.831Z,7.73
2023-05-02T19:29:23.641Z,7.87
2023-05-02T19:31:25.404Z,6.60
2023-05-02T19:33:27.158Z,8.23
2023-05-02T19:35:29.409Z,6.17
2023-05-02T19:37:31.328Z,7.20
2023-05-02T19:39:33.061Z,6.40
2023-05-02T19:41:34.913Z,8.40
2023-05-02T19:43:36.644Z,5.90
2023-05-02T19:45:38.436Z,5.40
2023-05-02T19:47:43.744Z,6.57
2023-05-02T19:49:45.793Z,8.07
2023-05-02T19:51:47.585Z,4.90
2023-05-02T19:53:49.214Z,6.70
2023-05-02T19:55:51.005Z,8.07
2023-05-02T19:57:52.772Z,7.50
2023-05-02T19:59:55.133Z,5.53
2023-05-02T20:01:56.913Z,6.50
2023-05-02T20:03:58.726Z,6.60
2023-05-02T20:06:00.619Z,5.30
2023-05-02T20:08:02.439Z,5.70
2023-05-02T20:10:04.645Z,5.77
2023-05-02T20:12:06.783Z,6.30
2023-05-02T20:14:08.485Z,5.30
2023-05-02T20:16:10.565Z,5.60
2023-05-02T20:18:12.216Z,6.30
2023-05-02T20:20:13.924Z,5.00
2023-05-02T20:22:15.679Z,4.87
2023-05-02T20:24:17.394Z,6.37
2023-05-02T20:26:20.695Z,10.13
2023-05-02T20:28:22.509Z,5.30
2023-05-02T20:30:24.326Z,6.93
2023-05-02T20:32:26.958Z,5.60
2023-05-02T20:34:28.759Z,5.07
2023-05-02T20:36:31.084Z,5.37
2023-05-02T20:38:32.811Z,5.47
2023-05-02T20:40:34.808Z,4.17
2023-05-02T20:42:38.622Z,8.83
2023-05-02T20:44:40.660Z,5.77
2023-05-02T20:46:42.378Z,4.00
2023-05-02T20:48:44.123Z,7.10
2023-05-02T20:50:53.418Z,5.57
2023-05-02T20:52:55.254Z,4.83
2023-05-02T20:54:57.052Z,4.27
2023-05-02T20:56:58.828Z,3.70
2023-05-02T20:59:00.485Z,3.30
2023-05-02T21:01:02.338Z,4.47
2023-05-02T21:03:04.092Z,4.60
2023-05-02T21:05:06.192Z,4.40
2023-05-02T21:07:08.003Z,4.10
2023-05-02T21:09:09.907Z,5.07
2023-05-02T21:11:13.715Z,3.77
2023-05-02T21:13:15.526Z,3.60
2023-05-02T21:15:17.340Z,4.33
2023-05-02T21:17:19.169Z,4.20
2023-05-02T21:19:20.919Z,4.70
2023-05-02T21:21:23.002Z,4.73
2023-05-02T21:23:24.722Z,3.83
2023-05-02T21:25:26.432Z,4.30
2023-05-02T21:27:28.283Z,4.23
2023-05-02T21:29:30.012Z,3.63
2023-05-02T21:31:32.749Z,5.73
2023-05-02T21:33:34.673Z,4.27
2023-05-02T21:35:36.345Z,3.20
2023-05-02T21:37:38.023Z,4.63
2023-05-02T21:39:39.701Z,3.50
2023-05-02T21:41:41.496Z,3.60
2023-05-02T21:43:43.190Z,3.63
2023-05-02T21:45:45.881Z,6.10
2023-05-02T21:47:47.631Z,4.03
2023-05-02T21:49:49.581Z,3.83
2023-05-02T21:51:51.254Z,3.20
2023-05-02T21:53:53.909Z,4.07
2023-05-02T21:55:55.675Z,5.60
2023-05-02T21:57:58.035Z,5.00
2023-05-02T21:59:59.984Z,4.33
2023-05-02T22:02:02.300Z,4.63
2023-05-02T22:04:04.139Z,3.70
2023-05-02T22:06:06.797Z,4.13
2023-05-02T22:08:10.876Z,4.03
2023-05-02T22:10:13.187Z,4.57
2023-05-02T22:12:15.109Z,3.80
2023-05-02T22:14:16.822Z,4.30
2023-05-02T22:16:18.824Z,3.43
2023-05-02T22:18:20.796Z,3.17
2023-05-02T22:20:23.803Z,4.80
2023-05-02T22:22:25.709Z,4.13
2023-05-02T22:24:28.769Z,3.47
2023-05-02T22:26:30.580Z,4.00
2023-05-02T22:28:32.472Z,5.13
2023-05-02T22:30:34.472Z,5.30
2023-05-02T22:32:36.418Z,4.97
2023-05-02T22:34:38.067Z,6.50
2023-05-02T22:36:39.821Z,4.40
2023-05-02T22:38:41.627Z,4.80
2023-05-02T22:40:43.431Z,5.10
2023-05-02T22:42:45.272Z,4.90
2023-05-02T22:44:54.516Z,5.40
2023-05-02T22:46:56.630Z,3.30
2023-05-02T22:48:58.784Z,5.50
2023-05-02T22:51:01.004Z,3.93
2023-05-02T22:53:04.146Z,3.87
2023-05-02T22:55:09.028Z,4.80
2023-05-02T22:57:10.869Z,4.70
2023-05-02T22:59:12.528Z,5.97
2023-05-02T23:01:14.223Z,4.20
2023-05-02T23:03:16.195Z,4.37
2023-05-02T23:05:17.934Z,4.10
2023-05-02T23:07:19.803Z,6.20
2023-05-02T23:09:21.600Z,4.70
2023-05-02T23:11:23.374Z,5.10
2023-05-02T23:13:26.196Z,5.80
2023-05-02T23:15:27.883Z,5.20
2023-05-02T23:17:29.573Z,6.67
2023-05-02T23:19:31.316Z,4.13
2023-05-02T23:21:32.981Z,5.17
2023-05-02T23:23:34.654Z,5.90
2023-05-02T23:25:36.764Z,4.30
2023-05-02T23:27:38.598Z,6.63
2023-05-02T23:29:40.399Z,4.50
2023-05-02T23:31:42.422Z,6.17
2023-05-02T23:33:44.268Z,4.20
2023-05-02T23:35:45.922Z,6.00
2023-05-02T23:37:47.975Z,5.30
2023-05-02T23:39:50.842Z,4.47
2023-05-02T23:41:52.499Z,6.57
2023-05-02T23:43:54.290Z,4.50
2023-05-02T23:45:56.176Z,5.00
2023-05-02T23:47:57.903Z,5.20
2023-05-02T23:49:59.787Z,5.53
2023-05-02T23:52:02.629Z,5.20
2023-05-02T23:54:04.685Z,9.20
2023-05-02T23:56:06.852Z,5.40
2023-05-02T23:58:08.516Z,6.93
